createdAt,value
2023-03-23T15:58:46.584Z,98786.70
2023-03-23T16:01:18.344Z,98793.37
2023-03-23T16:04:08.399Z,98795.27
2023-03-23T16:07:14.202Z,98790.20
2023-03-23T16:25:45.781Z,98836.31
2023-03-23T16:28:41.600Z,98864.11
2023-03-23T16:31:10.130Z,98876.35
2023-03-23T16:33:38.744Z,98893.08
2023-03-23T16:36:07.470Z,98894.39
2023-03-23T16:38:49.466Z,98894.39
2023-03-23T16:41:18.926Z,98891.61
2023-03-23T16:43:47.232Z,98886.84
2023-03-23T16:46:15.349Z,98886.84
2023-03-23T16:48:43.679Z,98881.15
2023-03-23T16:51:32.508Z,98874.94
2023-03-23T16:54:01.081Z,98876.56
2023-03-23T16:56:29.712Z,98875.43
2023-03-23T16:59:01.269Z,98871.82
2023-03-23T17:01:51.372Z,98876.04
2023-03-23T17:04:25.757Z,98877.98
2023-03-23T17:07:20.269Z,98878.21
2023-03-23T17:29:39.176Z,98917.11
2023-03-23T17:32:07.633Z,98919.92
2023-03-23T17:34:35.903Z,98918.63
2023-03-23T17:37:04.553Z,98913.45
2023-03-23T17:39:33.112Z,98925.61
2023-03-23T17:42:14.064Z,98922.36
2023-03-23T17:44:42.588Z,98932.38
2023-03-23T17:47:13.742Z,98930.91
2023-03-23T17:49:42.066Z,98935.13
2023-03-23T17:52:10.068Z,98935.94
2023-03-23T17:54:38.399Z,98938.38
2023-03-23T17:57:06.921Z,98944.00
2023-03-23T17:59:35.480Z,98951.34
2023-03-23T18:02:03.959Z,98950.86
2023-03-23T18:04:34.554Z,98944.27
2023-03-23T18:07:02.861Z,98946.27
2023-03-23T18:09:31.393Z,98945.62
2023-03-23T18:11:59.626Z,98947.89
2023-03-23T18:14:27.957Z,98947.41
2023-03-23T18:16:56.161Z,98956.02
2023-03-23T18:19:24.390Z,98963.98
2023-03-23T18:21:52.607Z,98960.61
2023-03-23T18:24:21.145Z,98957.54
2023-03-23T18:42:08.730Z,98970.37
2023-03-23T18:44:37.858Z,98975.34
2023-03-23T18:47:06.493Z,98970.36
2023-03-23T18:49:34.755Z,98967.89
2023-03-23T18:52:04.486Z,98969.02
2023-03-23T18:54:35.098Z,98968.27
2023-03-23T18:57:03.737Z,98962.98
2023-03-23T18:59:34.017Z,98981.19
2023-03-23T19:02:05.723Z,99018.81
2023-03-23T19:04:53.248Z,99057.72
2023-03-23T19:07:21.895Z,99056.36
2023-03-23T19:09:50.593Z,99043.44
2023-03-23T19:12:19.300Z,99039.98
2023-03-23T19:14:47.593Z,99039.17
2023-03-23T19:17:16.963Z,99032.20
2023-03-23T19:19:45.642Z,99038.36
2023-03-23T19:22:14.162Z,99044.09
2023-03-23T19:24:42.383Z,99039.01
2023-03-23T19:27:11.080Z,99034.47
2023-03-23T19:29:40.672Z,99027.50
2023-03-23T19:32:12.124Z,99030.48
2023-03-23T19:34:51.318Z,99040.58
2023-03-23T19:37:20.914Z,99010.42
2023-03-23T19:39:52.544Z,98996.21
2023-03-23T19:42:23.873Z,98992.27
2023-03-23T19:44:55.441Z,98998.86
2023-03-23T19:47:23.906Z,98997.73
2023-03-23T19:53:42.019Z,98992.70
2023-03-23T19:56:16.930Z,98987.52
2023-03-23T19:58:46.110Z,98993.03
2023-03-23T20:01:15.139Z,98995.40
2023-03-23T20:03:45.353Z,99002.20
2023-03-23T20:06:15.474Z,99006.54
2023-03-23T20:08:45.763Z,98997.56
2023-03-23T20:11:17.218Z,98993.73
2023-03-23T20:13:46.848Z,98995.02
2023-03-23T20:16:20.426Z,98994.91
2023-03-23T20:18:49.946Z,99008.31
2023-03-23T20:21:22.411Z,99020.15
2023-03-23T20:23:54.289Z,99013.98
2023-03-23T20:26:27.279Z,99010.26
2023-03-23T20:28:55.766Z,99007.52
2023-03-23T20:31:27.298Z,99005.77
2023-03-23T20:34:02.552Z,98996.86
2023-03-23T20:36:45.365Z,98994.92
2023-03-23T20:39:29.278Z,98997.42
2023-03-23T20:42:00.647Z,98994.35
2023-03-23T20:44:34.818Z,99003.48
2023-03-23T20:47:04.094Z,99006.23
2023-03-23T20:49:33.485Z,99008.80
2023-03-23T20:59:04.148Z,99026.92
2023-03-23T21:01:35.117Z,99033.61
2023-03-23T21:04:18.848Z,99036.53
2023-03-23T21:06:49.286Z,99035.98
2023-03-23T21:09:19.084Z,99029.60
2023-03-23T21:11:48.182Z,99025.63
2023-03-23T21:14:17.270Z,99024.33
2023-03-23T21:16:45.828Z,99026.91
2023-03-23T21:19:14.536Z,99026.38
2023-03-23T21:21:56.207Z,99034.26
2023-03-23T21:24:38.932Z,99031.45
2023-03-23T21:27:07.419Z,99029.28
2023-03-23T21:33:23.326Z,99026.80
2023-03-23T21:35:54.043Z,99023.71
2023-03-23T21:38:26.275Z,99033.00
2023-03-23T21:40:55.526Z,99033.33
2023-03-23T21:43:46.646Z,99032.67
2023-03-23T21:46:19.206Z,99033.20
2023-03-23T21:48:59.149Z,99025.05
2023-03-23T21:51:32.809Z,99045.96
2023-03-23T21:54:02.717Z,99031.77
2023-03-23T21:56:31.313Z,99023.88
2023-03-23T21:59:01.659Z,99026.79
2023-03-23T22:01:37.037Z,99033.31
2023-03-23T22:04:08.641Z,99039.92
2023-03-23T22:06:37.350Z,99046.43
2023-03-23T22:09:05.975Z,99051.92
2023-03-23T22:11:34.460Z,99054.07
2023-03-23T22:14:04.267Z,99053.99
2023-03-23T22:16:35.175Z,99052.77
2023-03-23T22:19:04.196Z,99052.92
2023-03-23T22:21:32.680Z,99051.11
2023-03-23T22:24:02.499Z,99055.39
2023-03-23T22:26:33.779Z,99058.49
2023-03-23T22:29:02.748Z,99054.27
2023-03-23T22:31:34.576Z,99052.81
2023-03-23T22:34:03.263Z,99051.41
2023-03-23T22:36:33.475Z,99045.05
2023-03-23T22:39:02.547Z,99039.73
2023-03-23T22:41:36.976Z,99041.31
2023-03-23T22:44:07.893Z,99046.13
2023-03-23T22:46:36.481Z,99046.73
2023-03-23T22:49:05.049Z,99047.07
2023-03-23T22:51:33.269Z,99042.15
2023-03-23T22:54:01.505Z,99044.56
2023-03-23T22:56:30.159Z,99044.40
2023-03-23T22:59:00.790Z,99044.06
2023-03-23T23:01:31.957Z,99048.61
2023-03-23T23:04:00.370Z,99052.05
2023-03-23T23:06:29.431Z,99054.63
2023-03-23T23:08:58.127Z,99052.89
2023-03-23T23:11:26.961Z,99057.14
2023-03-23T23:13:56.438Z,99055.85
2023-03-23T23:16:27.675Z,99062.04
2023-03-23T23:18:56.004Z,99064.77
2023-03-23T23:21:26.665Z,99067.73
2023-03-23T23:23:55.197Z,99069.61
2023-03-23T23:26:24.274Z,99068.95
2023-03-23T23:28:52.786Z,99067.16
2023-03-23T23:31:29.345Z,99063.42
2023-03-23T23:33:59.835Z,99063.94
2023-03-23T23:36:32.436Z,99068.02
2023-03-23T23:39:01.259Z,99068.08
2023-03-23T23:41:30.905Z,99063.77
2023-03-23T23:44:00.416Z,99065.70
2023-03-23T23:46:30.665Z,99060.17
2023-03-23T23:49:02.548Z,99054.85
2023-03-23T23:51:35.438Z,99051.83
2023-03-23T23:54:04.786Z,99044.80
2023-03-23T23:56:33.012Z,99043.92
2023-03-23T23:59:00.968Z,99037.45
